Time;durP1;ratioP1;P1;durP2;ratioP2;P2;SDS_P1;SDS_P2;PMS_P1;PMS_P2;Temp;Humidity;BMP_temperature;BMP_pressure;BME280_temperature;BME280_humidity;BME280_pressure;Samples;Min_cycle;Max_cycle;Signal;HPM_P1;HPM_P2
2022/04/14 00:01:19;;;;;;;12.10;9.80;;;;;;;1.99;57.63;97870.98;110124;1247;70688;-67
2022/04/14 00:03:50;;;;;;;24.20;15.70;;;;;;;1.96;60.39;97875.02;110059;1247;67507;-67
2022/04/14 00:06:20;;;;;;;;;;;;;;;1.85;62.44;97875.54;109912;1248;69019;-67
2022/04/14 00:08:53;;;;;;;21.70;12.30;;;;;;;1.69;62.23;97877.03;110022;1247;59686;-68
2022/04/14 00:11:23;;;;;;;20.50;13.20;;;;;;;1.57;64.20;97875.86;110103;1247;59695;-68
2022/04/14 00:13:53;;;;;;;;;;;;;;;1.48;64.45;97876.64;110093;1247;72713;-68
2022/04/14 00:16:24;;;;;;;22.40;15.20;;;;;;;1.37;65.77;97874.74;110117;1247;68775;-69
2022/04/14 00:18:55;;;;;;;22.20;13.90;;;;;;;1.26;64.98;97875.22;110111;1247;69446;-67
2022/04/14 00:21:26;;;;;;;17.40;10.80;;;;;;;1.17;65.58;97877.69;109975;1247;59745;-66
2022/04/14 00:23:57;;;;;;;17.30;11.10;;;;;;;1.12;65.73;97877.83;109701;1250;59690;-66
2022/04/14 00:26:27;;;;;;;18.70;13.20;;;;;;;1.07;64.95;97877.97;110035;1247;70775;-66
2022/04/14 00:28:58;;;;;;;23.40;15.70;;;;;;;0.99;63.96;97874.75;110017;1247;69261;-67
2022/04/14 00:31:28;;;;;;;24.60;15.40;;;;;;;0.91;66.09;97874.96;109928;1248;69401;-66
2022/04/14 00:33:59;;;;;;;19.10;13.60;;;;;;;0.85;65.72;97877.52;110016;1247;59745;-66
2022/04/14 00:36:29;;;;;;;20.00;14.80;;;;;;;0.80;65.84;97875.44;110133;1247;59631;-67
2022/04/14 00:38:59;;;;;;;19.80;13.30;;;;;;;0.78;67.35;97876.16;110149;1247;71408;-65
2022/04/14 00:41:30;;;;;;;26.60;16.70;;;;;;;0.75;65.09;97869.71;109867;1248;68602;-65
2022/04/14 00:44:01;;;;;;;26.50;17.50;;;;;;;0.70;64.49;97865.06;109996;1247;69447;-66
2022/04/14 00:46:31;;;;;;;20.70;14.60;;;;;;;0.64;67.33;97869.52;109966;1249;59737;-66
2022/04/14 00:49:03;;;;;;;19.30;14.00;;;;;;;0.57;68.81;97868.48;110085;1246;59701;-66
2022/04/14 00:51:34;;;;;;;21.30;16.00;;;;;;;0.51;69.79;97865.88;109997;1247;72320;-67
2022/04/14 00:54:04;;;;;;;;;;;;;;;0.46;70.57;97860.52;110116;1247;68596;-67
2022/04/14 00:56:34;;;;;;;23.30;14.80;;;;;;;0.42;68.87;97861.83;110103;1247;69382;-68
2022/04/14 00:59:05;;;;;;;18.60;13.10;;;;;;;0.39;67.49;97863.62;110004;1247;59690;-67
2022/04/14 01:01:36;;;;;;;21.20;13.20;;;;;;;0.34;66.47;97864.77;110063;1247;59699;-66
2022/04/14 01:04:08;;;;;;;21.80;15.10;;;;;;;0.32;66.34;97864.30;109876;1247;70602;-67
2022/04/14 01:06:39;;;;;;;19.40;13.20;;;;;;;0.30;66.68;97869.48;110092;1247;69151;-67
2022/04/14 01:09:21;;;;;;;25.50;15.20;;;;;;;0.30;63.66;97862.14;110083;1247;69382;-68
2022/04/14 01:11:54;;;;;;;21.40;13.80;;;;;;;0.32;65.09;97864.80;110081;1247;59719;-67
2022/04/14 01:14:36;;;;;;;18.70;11.40;;;;;;;0.33;64.80;97868.23;110139;1247;59749;-68
2022/04/14 01:17:08;;;;;;;18.20;14.10;;;;;;;0.31;67.80;97868.27;110080;1247;71442;-67
2022/04/14 01:19:40;;;;;;;22.70;17.00;;;;;;;0.27;68.55;97867.84;109955;1248;68893;-67
2022/04/14 01:22:26;;;;;;;19.60;12.90;;;;;;;0.23;68.88;97875.48;110059;1247;68646;-67
2022/04/14 01:24:57;;;;;;;17.20;9.90;;;;;;;0.19;66.12;97880.05;110079;1247;59777;-67
2022/04/14 01:27:29;;;;;;;17.70;11.90;;;;;;;0.17;64.55;97880.95;110120;1247;59695;-68
2022/04/14 01:30:00;;;;;;;16.90;9.60;;;;;;;0.16;64.31;97880.13;110076;1247;70779;-67
2022/04/14 01:32:30;;;;;;;14.20;10.00;;;;;;;0.13;64.07;97880.38;109894;1247;67615;-67
2022/04/14 01:35:02;;;;;;;13.00;7.70;;;;;;;0.11;64.95;97881.11;109889;1247;68947;-67
2022/04/14 01:37:32;;;;;;;13.70;9.40;;;;;;;0.10;64.07;97881.30;110098;1247;59749;-66
2022/04/14 01:40:04;;;;;;;15.40;8.50;;;;;;;0.10;64.17;97884.04;110007;1247;59755;-67
2022/04/14 01:42:35;;;;;;;12.60;8.20;;;;;;;0.11;66.79;97884.01;109969;1247;71502;-67
2022/04/14 01:45:10;;;;;;;12.00;7.90;;;;;;;0.08;65.28;97881.84;109886;1247;68901;-66
2022/04/14 01:47:41;;;;;;;11.90;7.30;;;;;;;0.05;66.13;97883.14;110039;1247;68619;-67
2022/04/14 01:50:14;;;;;;;12.00;8.20;;;;;;;0.02;64.49;97881.65;110099;1247;59760;-67
2022/04/14 01:52:44;;;;;;;18.00;11.80;;;;;;;-0.03;68.94;97881.93;109956;1247;59673;-66
2022/04/14 01:55:15;;;;;;;22.70;13.90;;;;;;;-0.07;70.03;97880.64;110070;1247;70774;-68
2022/04/14 01:57:45;;;;;;;19.30;11.40;;;;;;;-0.12;67.86;97874.60;110078;1247;69358;-68
2022/04/14 02:00:16;;;;;;;13.20;8.90;;;;;;;-0.15;66.11;97873.63;109950;1247;68655;-67
2022/04/14 02:02:46;;;;;;;14.40;8.00;;;;;;;-0.16;67.35;97871.27;110109;1247;59677;-67
2022/04/14 02:05:16;;;;;;;12.60;9.70;;;;;;;-0.17;69.79;97876.11;110081;1247;59751;-66
2022/04/14 02:07:47;;;;;;;16.80;11.80;;;;;;;-0.19;69.56;97875.44;110045;1247;71012;-68
2022/04/14 02:10:17;;;;;;;15.80;9.90;;;;;;;-0.22;67.88;97870.05;110113;1246;69269;-67
2022/04/14 02:12:47;;;;;;;14.10;9.10;;;;;;;-0.23;65.12;97865.59;110053;1247;69394;-67
2022/04/14 02:15:18;;;;;;;12.20;8.80;;;;;;;-0.22;67.24;97865.41;110176;1247;59688;-66
2022/04/14 02:17:49;;;;;;;12.30;7.60;;;;;;;-0.24;68.72;97865.44;110004;1248;59683;-68
2022/04/14 02:20:19;;;;;;;16.20;11.50;;;;;;;-0.26;69.18;97865.67;110117;1247;71580;-66
2022/04/14 02:22:49;;;;;;;;;;;;;;;-0.30;70.18;97863.35;110091;1246;69306;-67
2022/04/14 02:25:20;;;;;;;;;;;;;;;-0.37;68.19;97862.65;110094;1247;69681;-67
2022/04/14 02:27:51;;;;;;;10.90;8.00;;;;;;;-0.40;68.23;97857.27;110097;1247;59707;-67
2022/04/14 02:30:22;;;;;;;21.30;14.10;;;;;;;-0.44;71.15;97858.71;109837;1247;60119;-67
2022/04/14 02:32:52;;;;;;;16.80;11.80;;;;;;;-0.48;70.28;97858.61;110113;1247;70636;-67
2022/04/14 02:35:22;;;;;;;18.50;13.20;;;;;;;-0.48;68.10;97856.57;110117;1246;68489;-68
2022/04/14 02:37:55;;;;;;;15.60;10.60;;;;;;;-0.48;68.38;97862.05;110049;1247;68596;-68
2022/04/14 02:40:26;;;;;;;17.40;10.00;;;;;;;-0.54;68.68;97858.05;110072;1247;59713;-68
2022/04/14 02:42:59;;;;;;;22.80;13.90;;;;;;;-0.60;71.03;97861.60;110137;1246;59717;-67
2022/04/14 02:45:30;;;;;;;17.80;10.80;;;;;;;-0.71;69.98;97866.27;109867;1247;71550;-68
2022/04/14 02:48:00;;;;;;;18.60;13.30;;;;;;;-0.80;71.08;97874.52;109957;1247;69360;-67
2022/04/14 02:50:30;;;;;;;19.50;12.00;;;;;;;-0.87;73.45;97874.31;109829;1247;68610;-66
2022/04/14 02:53:00;;;;;;;16.30;11.40;;;;;;;-0.87;73.14;97871.08;110115;1247;59758;-69
2022/04/14 02:55:31;;;;;;;17.20;12.30;;;;;;;-0.88;71.34;97874.85;109845;1248;59711;-65
2022/04/14 02:58:02;;;;;;;17.20;12.50;;;;;;;-0.85;68.82;97877.69;110112;1245;71423;-66
2022/04/14 03:00:33;;;;;;;15.30;10.20;;;;;;;-0.84;68.18;97879.38;109959;1247;68645;-68
2022/04/14 03:03:02;;;;;;;14.00;10.20;;;;;;;-0.86;69.03;97881.66;110062;1247;68475;-67
2022/04/14 03:05:33;;;;;;;13.50;9.90;;;;;;;-0.90;71.38;97884.83;110071;1247;59731;-67
2022/04/14 03:08:03;;;;;;;15.60;9.60;;;;;;;-0.94;72.62;97886.08;110037;1247;59695;-67
2022/04/14 03:10:33;;;;;;;20.80;13.20;;;;;;;-0.97;74.03;97886.14;109873;1249;71614;-67
2022/04/14 03:13:03;;;;;;;18.50;13.20;;;;;;;-1.01;73.16;97888.97;109764;1248;68658;-67
2022/04/14 03:15:34;;;;;;;15.60;10.90;;;;;;;-1.05;73.65;97885.27;110031;1247;69387;-66
2022/04/14 03:18:05;;;;;;;14.20;8.90;;;;;;;-1.08;73.85;97886.67;109930;1247;59670;-67
2022/04/14 03:20:35;;;;;;;13.20;9.10;;;;;;;-1.09;73.42;97886.02;110031;1247;59688;-66
2022/04/14 03:23:06;;;;;;;18.80;12.10;;;;;;;-1.09;74.08;97888.77;109954;1247;70770;-67
2022/04/14 03:25:35;;;;;;;16.30;11.80;;;;;;;-1.11;73.23;97891.70;110061;1246;68576;-68
2022/04/14 03:28:06;;;;;;;15.00;10.50;;;;;;;-1.11;70.57;97892.58;110095;1247;69446;-67
2022/04/14 03:30:35;;;;;;;16.40;9.40;;;;;;;-1.08;71.94;97893.52;110088;1247;59692;-65
2022/04/14 03:33:05;;;;;;;13.90;10.40;;;;;;;-1.06;72.81;97897.27;109977;1247;59704;-66
2022/04/14 03:35:36;;;;;;;19.20;13.10;;;;;;;-1.05;73.32;97889.73;110050;1247;71280;-66
2022/04/14 03:38:05;;;;;;;24.20;14.50;;;;;;;-1.03;74.91;97889.67;110026;1247;69353;-67
2022/04/14 03:40:55;;;;;;;20.40;14.30;;;;;;;-1.06;73.02;97900.33;109988;1247;68681;-67
2022/04/14 03:43:25;;;;;;;26.00;15.80;;;;;;;-1.13;73.85;97899.27;110095;1247;59701;-66
2022/04/14 03:45:55;;;;;;;20.00;12.50;;;;;;;-1.21;73.03;97899.77;110085;1247;59686;-66
2022/04/14 03:48:25;;;;;;;21.70;15.50;;;;;;;-1.27;74.80;97899.70;110056;1247;70775;-66
2022/04/14 03:50:54;;;;;;;16.10;11.10;;;;;;;-1.26;76.52;97901.23;109995;1247;67544;-67
2022/04/14 03:53:24;;;;;;;16.90;10.60;;;;;;;-1.26;74.88;97906.17;110070;1247;68746;-67
2022/04/14 03:55:54;;;;;;;21.70;14.90;;;;;;;-1.25;75.59;97905.13;109928;1247;59761;-67
2022/04/14 03:58:23;;;;;;;19.70;13.50;;;;;;;-1.23;76.57;97906.83;110073;1247;59705;-67
2022/04/14 04:00:53;;;;;;;18.80;12.70;;;;;;;-1.21;76.67;97907.45;110022;1247;69960;-69
2022/04/14 04:03:22;;;;;;;20.20;11.20;;;;;;;-1.20;75.01;97906.08;110068;1247;67786;-67
2022/04/14 04:05:52;;;;;;;14.80;9.20;;;;;;;-1.15;73.47;97906.69;109907;1247;68722;-66
2022/04/14 04:08:22;;;;;;;17.00;11.70;;;;;;;-1.10;73.71;97908.95;109797;1247;59810;-68
2022/04/14 04:10:51;;;;;;;18.10;12.70;;;;;;;-1.03;73.58;97905.09;110012;1247;59689;-68
2022/04/14 04:13:21;;;;;;;17.20;10.50;;;;;;;-0.96;70.24;97895.88;109909;1248;71602;-66
2022/04/14 04:15:51;;;;;;;21.80;13.60;;;;;;;-0.86;70.55;97897.73;109970;1247;68529;-68
2022/04/14 04:18:20;;;;;;;26.30;17.10;;;;;;;-0.73;69.88;97902.11;110069;1247;69479;-67
2022/04/14 04:20:49;;;;;;;25.20;15.00;;;;;;;-0.59;69.72;97904.73;110046;1247;59711;-68
2022/04/14 04:23:19;;;;;;;24.70;14.80;;;;;;;-0.47;69.42;97902.77;110100;1247;59630;-67
2022/04/14 04:25:49;;;;;;;26.30;16.40;;;;;;;-0.33;70.43;97903.16;110051;1247;69767;-67
2022/04/14 04:28:19;;;;;;;23.20;15.90;;;;;;;-0.19;70.94;97907.14;110113;1247;69300;-66
2022/04/14 04:30:48;;;;;;;24.10;15.50;;;;;;;-0.04;70.97;97913.14;109958;1248;68652;-65
2022/04/14 04:33:17;;;;;;;21.10;12.50;;;;;;;0.13;71.60;97920.64;110099;1247;59765;-66
2022/04/14 04:35:47;;;;;;;25.90;17.70;;;;;;;0.36;70.47;97926.44;110031;1247;59660;-66
2022/04/14 04:38:16;;;;;;;33.80;19.20;;;;;;;0.61;69.82;97927.04;110047;1247;71555;-65
2022/04/14 04:40:46;;;;;;;49.40;38.90;;;;;;;0.86;69.26;97932.43;110119;1247;68646;-68
2022/04/14 04:43:16;;;;;;;25.80;19.50;;;;;;;1.00;69.13;97933.41;110054;1247;68671;-67
2022/04/14 04:45:45;;;;;;;33.50;19.90;;;;;;;1.21;68.88;97933.71;109972;1247;59701;-68
2022/04/14 04:48:15;;;;;;;41.40;24.00;;;;;;;1.45;68.49;97932.36;110141;1247;59755;-66
2022/04/14 04:50:45;;;;;;;28.20;18.10;;;;;;;1.61;67.89;97932.08;110105;1247;71348;-67
2022/04/14 04:53:15;;;;;;;30.00;17.70;;;;;;;1.83;67.29;97926.98;109788;1248;68584;-66
2022/04/14 04:55:45;;;;;;;26.90;16.50;;;;;;;2.07;65.85;97927.46;109979;1247;69239;-66
2022/04/14 04:58:14;;;;;;;27.70;16.40;;;;;;;2.31;65.53;97923.29;109788;1248;60175;-68
2022/04/14 05:00:44;;;;;;;35.70;21.60;;;;;;;2.57;64.55;97922.95;110190;1247;59673;-66
2022/04/14 05:03:14;;;;;;;31.70;20.60;;;;;;;2.81;64.32;97921.47;110094;1247;70815;-66
2022/04/14 05:05:49;;;;;;;34.90;21.80;;;;;;;3.04;63.02;97923.09;110122;1247;68607;-65
2022/04/14 05:08:18;;;;;;;29.70;19.00;;;;;;;3.21;61.57;97919.77;110042;1247;68592;-66
2022/04/14 05:10:48;;;;;;;28.50;17.40;;;;;;;3.39;61.66;97928.95;109848;1247;59669;-67
2022/04/14 05:13:17;;;;;;;24.80;14.90;;;;;;;3.69;62.86;97929.08;110111;1247;60099;-68
2022/04/14 05:15:47;;;;;;;20.40;12.90;;;;;;;4.04;62.90;97930.84;110060;1247;71605;-69
2022/04/14 05:18:17;;;;;;;30.30;19.90;;;;;;;4.36;61.47;97936.48;109724;1248;68726;-66
2022/04/14 05:20:47;;;;;;;19.80;13.80;;;;;;;4.56;60.15;97939.86;110060;1247;68608;-67
2022/04/14 05:23:16;;;;;;;20.90;16.10;;;;;;;4.76;58.05;97940.10;110102;1247;59790;-67
2022/04/14 05:25:46;;;;;;;26.20;18.80;;;;;;;4.86;56.61;97944.15;110104;1247;59671;-67
2022/04/14 05:28:15;;;;;;;21.60;15.50;;;;;;;5.33;59.82;97948.55;110106;1247;71496;-67
2022/04/14 05:30:45;;;;;;;33.60;21.40;;;;;;;5.76;59.73;97949.93;109987;1247;69197;-66
2022/04/14 05:33:16;;;;;;;26.20;19.30;;;;;;;6.12;58.35;97945.05;110040;1247;69387;-66
2022/04/14 05:35:47;;;;;;;29.60;20.00;;;;;;;6.48;58.53;97947.33;109995;1247;59689;-65
2022/04/14 05:38:17;;;;;;;36.50;24.80;;;;;;;6.79;56.31;97946.73;110091;1246;59694;-66
2022/04/14 05:40:46;;;;;;;32.80;22.00;;;;;;;6.50;53.27;97949.48;109840;1248;71705;-66
2022/04/14 05:43:21;;;;;;;27.90;20.60;;;;;;;6.58;54.09;97953.61;110158;1246;69378;-65
2022/04/14 05:45:50;;;;;;;29.30;19.00;;;;;;;6.48;53.15;97953.08;110043;1247;68731;-66
2022/04/14 05:48:20;;;;;;;27.20;17.90;;;;;;;6.49;52.84;97954.04;110061;1247;59777;-67
2022/04/14 05:50:50;;;;;;;22.60;16.80;;;;;;;6.80;53.20;97956.70;110128;1247;59768;-69
2022/04/14 05:53:29;;;;;;;19.90;14.20;;;;;;;7.09;52.81;97960.98;110101;1247;70714;-68
2022/04/14 05:55:58;;;;;;;18.50;13.00;;;;;;;7.60;53.36;97961.50;110048;1247;68713;-68
2022/04/14 05:58:28;;;;;;;17.30;12.80;;;;;;;8.08;52.16;97957.38;110025;1247;67648;-66
2022/04/14 06:00:57;;;;;;;17.70;12.40;;;;;;;8.52;48.81;97955.19;110036;1247;59685;-64
2022/04/14 06:03:27;;;;;;;18.10;12.90;;;;;;;8.94;47.20;97954.03;109917;1247;59698;-66
2022/04/14 06:05:56;;;;;;;14.30;10.20;;;;;;;9.20;46.55;97954.06;109943;1247;70879;-65
2022/04/14 06:08:25;;;;;;;17.80;12.60;;;;;;;9.49;46.38;97948.37;110088;1247;69404;-66
2022/04/14 06:10:55;;;;;;;17.70;13.30;;;;;;;9.73;44.95;97945.20;109903;1247;69661;-65
2022/04/14 06:13:24;;;;;;;17.20;12.20;;;;;;;9.79;42.95;97943.96;110099;1247;59680;-65
2022/04/14 06:15:53;;;;;;;15.40;12.20;;;;;;;9.51;41.69;97943.57;110073;1247;59748;-65
2022/04/14 06:18:22;;;;;;;12.30;9.70;;;;;;;9.63;42.20;97941.77;109974;1247;71820;-65
2022/04/14 06:20:54;;;;;;;13.10;10.40;;;;;;;9.69;40.62;97938.79;110122;1245;69267;-67
2022/04/14 06:23:23;;;;;;;17.70;12.10;;;;;;;9.86;40.84;97934.43;110165;1247;69711;-67
2022/04/14 06:25:52;;;;;;;14.90;10.90;;;;;;;10.23;41.20;97935.11;109819;1245;636635;-66
2022/04/14 06:28:22;;;;;;;15.20;11.90;;;;;;;10.22;39.78;97934.86;110007;1247;59684;-67
2022/04/14 06:30:51;;;;;;;12.80;10.20;;;;;;;10.39;38.81;97939.88;110101;1247;70822;-66
2022/04/14 06:33:21;;;;;;;15.80;11.10;;;;;;;10.63;39.30;97938.85;110110;1247;69577;-67
2022/04/14 06:35:50;;;;;;;13.70;10.20;;;;;;;10.80;37.54;97936.71;110084;1246;69245;-66
2022/04/14 06:38:21;;;;;;;13.90;9.30;;;;;;;11.18;36.57;97933.85;110057;1247;59763;-67
2022/04/14 06:40:50;;;;;;;10.00;8.10;;;;;;;11.64;36.07;97929.52;109959;1247;59704;-65
2022/04/14 06:43:21;;;;;;;13.10;10.00;;;;;;;11.96;35.00;97923.95;110098;1247;71842;-65
2022/04/14 06:45:49;;;;;;;12.10;8.80;;;;;;;12.28;35.00;97925.91;109801;1249;69455;-70
2022/04/14 06:48:19;;;;;;;10.00;7.40;;;;;;;12.67;34.29;97928.36;110089;1247;69455;-70
2022/04/14 06:50:48;;;;;;;11.70;9.10;;;;;;;13.08;33.38;97925.34;110087;1247;59688;-68
2022/04/14 06:53:17;;;;;;;12.60;10.00;;;;;;;13.28;33.23;97922.07;109917;1248;59802;-69
2022/04/14 06:55:48;;;;;;;12.50;9.30;;;;;;;13.32;33.08;97925.29;110095;1247;71639;-69
2022/04/14 06:58:17;;;;;;;12.80;8.60;;;;;;;13.45;32.97;97924.80;110114;1247;69691;-70
2022/04/14 07:00:46;;;;;;;10.70;8.90;;;;;;;13.82;32.43;97920.43;110078;1247;69446;-69
2022/04/14 07:03:16;;;;;;;14.00;9.40;;;;;;;13.91;32.61;97918.48;109964;1247;59734;-71
2022/04/14 07:05:46;;;;;;;11.00;8.60;;;;;;;14.04;31.79;97917.80;110116;1247;59656;-69
2022/04/14 07:08:16;;;;;;;;;;;;;;;14.38;31.87;97921.72;110112;1247;69828;-69
2022/04/14 07:10:45;;;;;;;11.00;7.70;;;;;;;14.32;31.00;97925.70;110106;1247;68701;-69
2022/04/14 07:13:14;;;;;;;11.70;8.20;;;;;;;14.58;30.66;97929.66;110104;1247;69229;-69
2022/04/14 07:15:44;;;;;;;10.20;7.40;;;;;;;14.12;30.97;97929.09;110046;1247;59825;-69
2022/04/14 07:18:13;;;;;;;;;;;;;;;14.76;30.17;97930.83;110101;1247;59750;-70
2022/04/14 07:20:44;;;;;;;10.30;7.90;;;;;;;15.09;30.33;97932.30;110019;1248;70668;-69
2022/04/14 07:23:13;;;;;;;8.40;5.90;;;;;;;15.34;29.57;97932.48;110111;1247;69246;-70
2022/04/14 07:25:43;;;;;;;8.60;6.50;;;;;;;15.78;30.00;97929.99;110003;1247;68828;-70
2022/04/14 07:28:14;;;;;;;8.90;6.40;;;;;;;16.15;28.53;97926.80;109836;1248;59653;-70
2022/04/14 07:30:52;;;;;;;9.50;5.90;;;;;;;16.01;27.53;97930.52;110132;1247;59697;-69
2022/04/14 07:33:21;;;;;;;11.20;7.20;;;;;;;16.23;27.46;97929.56;109807;1249;71613;-69
2022/04/14 07:35:52;;;;;;;9.80;6.20;;;;;;;16.16;26.63;97932.13;110089;1247;68881;-68
2022/04/14 07:38:21;;;;;;;9.60;6.50;;;;;;;16.08;26.91;97934.98;109845;1249;69484;-67
2022/04/14 07:40:51;;;;;;;8.70;6.40;;;;;;;16.11;26.71;97934.22;109967;1247;60015;-68
2022/04/14 07:43:20;;;;;;;9.50;6.60;;;;;;;16.13;26.41;97937.14;110038;1248;59662;-69
2022/04/14 07:45:50;;;;;;;10.90;6.40;;;;;;;16.13;26.16;97935.08;109718;1249;70895;-70
2022/04/14 07:48:22;;;;;;;;;;;;;;;16.18;26.04;97936.96;109864;1249;69404;-69
2022/04/14 07:50:51;;;;;;;8.10;5.60;;;;;;;16.37;25.69;97937.35;109887;1249;69919;-69
2022/04/14 07:53:21;;;;;;;8.40;6.20;;;;;;;16.49;25.21;97938.17;109799;1248;59807;-67
2022/04/14 07:55:50;;;;;;;7.10;5.70;;;;;;;16.64;24.91;97935.70;109890;1249;59603;-67
2022/04/14 07:58:20;;;;;;;7.10;6.00;;;;;;;16.89;24.83;97935.58;109916;1248;71654;-66
2022/04/14 08:00:52;;;;;;;9.00;7.40;;;;;;;17.18;25.91;97940.71;109998;1248;68892;-69
2022/04/14 08:03:22;;;;;;;8.00;6.60;;;;;;;17.31;24.21;97942.48;109854;1249;69446;-69
2022/04/14 08:05:51;;;;;;;6.90;5.80;;;;;;;17.19;24.74;97941.13;110068;1247;59777;-69
2022/04/14 08:08:21;;;;;;;9.90;5.80;;;;;;;16.97;23.62;97943.13;109867;1247;59640;-69
2022/04/14 08:10:50;;;;;;;8.60;6.60;;;;;;;17.70;24.32;97948.08;110046;1247;71583;-69
2022/04/14 08:13:19;;;;;;;8.40;7.40;;;;;;;18.35;24.85;97943.98;109793;1248;69624;-70
2022/04/14 08:15:51;;;;;;;8.10;6.10;;;;;;;18.58;23.63;97942.34;109780;1249;69266;-71
2022/04/14 08:18:20;;;;;;;10.10;7.20;;;;;;;18.81;23.31;97945.57;109960;1248;59672;-71
2022/04/14 08:20:49;;;;;;;9.00;6.70;;;;;;;18.68;23.14;97946.96;109846;1249;59645;-70
2022/04/14 08:23:20;;;;;;;6.40;5.00;;;;;;;18.84;21.91;97948.41;109753;1249;71632;-71
2022/04/14 08:25:49;;;;;;;12.10;8.50;;;;;;;18.74;22.32;97942.72;109916;1250;68689;-68
2022/04/14 08:28:41;;;;;;;9.00;6.40;;;;;;;18.73;22.70;97935.54;109762;1249;68628;-72
2022/04/14 08:31:11;;;;;;;7.90;6.60;;;;;;;18.19;21.53;97934.20;109742;1247;59771;-70
2022/04/14 08:33:42;;;;;;;6.50;4.80;;;;;;;18.27;21.29;97931.38;109792;1249;59743;-70
2022/04/14 08:36:15;;;;;;;9.00;6.70;;;;;;;18.42;21.79;97927.46;109867;1248;71601;-70
2022/04/14 08:38:46;;;;;;;9.20;7.90;;;;;;;18.17;22.79;97921.06;109886;1247;70153;-72
2022/04/14 08:41:19;;;;;;;8.70;7.40;;;;;;;18.52;22.68;97916.03;109893;1249;68916;-72
2022/04/14 08:43:58;;;;;;;10.30;8.10;;;;;;;17.93;22.64;97910.98;109922;1248;59697;-71
2022/04/14 08:46:29;;;;;;;9.70;6.30;;;;;;;18.10;23.03;97911.34;109886;1249;59683;-71
2022/04/14 08:49:00;;;;;;;10.80;8.40;;;;;;;17.83;23.00;97911.92;110012;1249;70675;-69
2022/04/14 08:51:35;;;;;;;13.30;9.80;;;;;;;17.59;23.81;97915.71;109965;1249;69193;-72
2022/04/14 08:54:06;;;;;;;13.30;10.60;;;;;;;17.65;24.11;97917.79;109990;1248;69494;-72
2022/04/14 08:56:36;;;;;;;11.60;9.10;;;;;;;17.87;23.97;97919.96;110186;1247;59752;-71
2022/04/14 08:59:06;;;;;;;6.70;5.60;;;;;;;18.34;22.45;97917.95;110223;1248;59686;-71
2022/04/14 09:01:37;;;;;;;6.80;5.30;;;;;;;17.85;21.50;97916.59;109998;1249;70584;-71
2022/04/14 09:04:07;;;;;;;11.80;10.60;;;;;;;18.25;22.59;97912.66;110235;1247;69570;-70
2022/04/14 09:06:37;;;;;;;9.80;7.70;;;;;;;18.90;22.30;97914.80;110092;1248;69478;-70
2022/04/14 09:09:06;;;;;;;5.60;4.30;;;;;;;18.98;20.93;97914.36;109827;1248;59803;-71
2022/04/14 09:11:38;;;;;;;7.00;3.60;;;;;;;18.97;19.44;97911.70;109841;1249;59728;-70
2022/04/14 09:14:08;;;;;;;8.30;6.70;;;;;;;18.84;21.29;97912.35;109885;1248;71677;-69
2022/04/14 09:16:38;;;;;;;6.30;4.40;;;;;;;19.04;21.03;97912.06;110028;1248;68581;-71
2022/04/14 09:19:07;;;;;;;7.90;5.30;;;;;;;19.75;19.92;97914.59;109717;1249;68715;-69
2022/04/14 09:21:56;;;;;;;;;;;;;;;20.26;19.76;97908.83;109870;1249;59812;-71
2022/04/14 09:24:49;;;;;;;6.00;4.90;;;;;;;20.58;19.28;97916.38;109909;1249;59699;-71
2022/04/14 09:27:37;;;;;;;6.60;4.80;;;;;;;20.76;19.19;97914.50;109912;1249;71015;-71
2022/04/14 09:30:11;;;;;;;7.30;5.70;;;;;;;20.64;19.01;97911.23;109950;1249;68641;-70
2022/04/14 09:32:45;;;;;;;6.90;6.20;;;;;;;20.69;19.49;97911.66;109774;1249;69394;-71
2022/04/14 09:35:21;;;;;;;7.30;4.70;;;;;;;21.05;18.69;97916.69;109688;1250;59730;-71
2022/04/14 09:38:13;;;;;;;7.30;4.80;;;;;;;20.35;18.71;97909.58;109894;1248;59672;-71
2022/04/14 09:40:44;;;;;;;7.00;5.60;;;;;;;20.76;19.28;97904.58;109839;1248;71988;-71
2022/04/14 09:43:13;;;;;;;6.80;5.10;;;;;;;20.66;19.21;97904.98;109898;1248;68636;-71
2022/04/14 09:45:46;;;;;;;;;;;;;;;20.91;18.99;97908.61;110062;1247;68646;-70
2022/04/14 09:48:18;;;;;;;8.80;6.10;;;;;;;21.40;19.14;97906.91;110013;1249;59753;-71
2022/04/14 09:50:48;;;;;;;6.90;5.90;;;;;;;21.57;18.66;97903.56;110221;1247;59779;-70
2022/04/14 09:53:21;;;;;;;7.30;5.70;;;;;;;21.21;18.90;97904.73;110172;1248;71547;-71
2022/04/14 09:55:50;;;;;;;6.90;5.10;;;;;;;20.43;19.11;97905.38;110166;1247;69617;-70
2022/04/14 09:58:26;;;;;;;5.80;4.90;;;;;;;20.10;19.68;97910.61;110154;1247;68635;-73
2022/04/14 10:00:57;;;;;;;8.20;5.10;;;;;;;20.87;19.39;97904.13;110063;1248;59691;-69
2022/04/14 10:03:31;;;;;;;5.80;4.20;;;;;;;21.55;18.92;97892.50;109962;1249;59628;-71
2022/04/14 10:06:07;;;;;;;6.90;4.80;;;;;;;22.03;18.11;97895.46;109742;1249;70781;-69
2022/04/14 10:08:51;;;;;;;6.90;4.40;;;;;;;21.33;18.41;97900.83;109793;1248;67540;-71
2022/04/14 10:11:25;;;;;;;4.80;4.30;;;;;;;20.95;18.34;97899.61;110001;1247;69338;-71
2022/04/14 10:13:54;;;;;;;5.10;4.20;;;;;;;20.47;18.11;97889.61;109834;1249;59836;-71
2022/04/14 10:16:25;;;;;;;;;;;;;;;20.13;18.42;97880.38;109830;1249;59740;-71
2022/04/14 10:18:55;;;;;;;6.70;4.50;;;;;;;20.08;19.13;97887.46;109962;1248;72255;-69
2022/04/14 10:21:24;;;;;;;5.70;4.10;;;;;;;19.67;20.04;97884.95;109952;1247;69419;-71
2022/04/14 10:23:55;;;;;;;4.70;3.40;;;;;;;20.04;18.97;97879.92;109805;1250;68739;-70
2022/04/14 10:26:25;;;;;;;4.10;3.00;;;;;;;20.61;18.88;97876.94;109903;1248;59783;-70
2022/04/14 10:28:55;;;;;;;4.90;3.40;;;;;;;21.25;18.48;97882.27;109859;1249;59692;-70
2022/04/14 10:31:24;;;;;;;3.30;2.70;;;;;;;21.03;16.92;97883.77;109853;1248;70781;-71
2022/04/14 10:33:53;;;;;;;;;;;;;;;21.25;17.29;97887.06;109902;1249;68694;-70
2022/04/14 10:36:23;;;;;;;4.40;2.60;;;;;;;21.75;18.71;97881.08;109641;1249;68674;-72
2022/04/14 10:38:53;;;;;;;5.00;3.00;;;;;;;22.21;17.85;97881.60;109997;1248;59763;-72
2022/04/14 10:41:27;;;;;;;5.30;2.80;;;;;;;22.48;17.02;97885.39;109993;1248;60075;-71
2022/04/14 10:44:00;;;;;;;4.20;2.80;;;;;;;22.59;17.74;97881.87;109995;1249;71792;-71
2022/04/14 10:46:40;;;;;;;5.00;2.80;;;;;;;22.94;16.98;97875.35;110207;1247;68603;-69
2022/04/14 10:49:11;;;;;;;5.00;3.10;;;;;;;21.99;16.80;97871.89;109846;1249;69601;-71
2022/04/14 10:51:43;;;;;;;4.90;3.20;;;;;;;22.14;17.60;97867.77;110151;1247;59743;-72
2022/04/14 10:54:15;;;;;;;4.00;3.20;;;;;;;22.02;17.57;97872.30;110048;1249;59684;-73
2022/04/14 10:56:47;;;;;;;4.40;2.80;;;;;;;21.23;17.40;97879.62;110216;1248;71768;-72
2022/04/14 10:59:42;;;;;;;5.20;3.00;;;;;;;21.44;18.87;97874.35;110147;1248;68483;-74
2022/04/14 11:02:12;;;;;;;5.60;3.00;;;;;;;21.37;19.05;97877.70;110183;1247;69495;-72
2022/04/14 11:04:41;;;;;;;5.60;2.90;;;;;;;21.28;18.66;97876.45;110199;1247;59715;-69
2022/04/14 11:07:23;;;;;;;4.80;3.10;;;;;;;21.50;18.10;97871.39;110077;1248;59705;-72
2022/04/14 11:10:00;;;;;;;7.60;3.70;;;;;;;21.57;18.13;97872.34;109962;1248;70812;-69
2022/04/14 11:12:41;;;;;;;5.60;3.60;;;;;;;21.44;19.35;97867.41;109984;1249;69379;-70
2022/04/14 11:15:12;;;;;;;14.70;4.50;;;;;;;21.47;19.51;97864.48;110060;1247;69326;-68
2022/04/14 11:17:53;;;;;;;5.80;3.70;;;;;;;21.38;20.03;97866.08;109959;1249;59761;-69
2022/04/14 11:20:30;;;;;;;6.60;4.00;;;;;;;21.43;19.56;97864.96;109819;1249;59689;-71
2022/04/14 11:23:12;;;;;;;5.00;3.40;;;;;;;21.11;19.65;97870.48;110121;1248;71890;-68
2022/04/14 11:25:49;;;;;;;5.00;3.30;;;;;;;21.29;20.03;97867.30;110201;1247;68512;-69
2022/04/14 11:28:31;;;;;;;4.30;2.80;;;;;;;21.70;18.94;97859.40;110167;1247;68595;-72
2022/04/14 11:31:25;;;;;;;5.90;3.50;;;;;;;21.87;19.41;97857.52;110089;1249;59684;-69
2022/04/14 11:33:57;;;;;;;5.20;3.70;;;;;;;21.71;18.60;97853.67;109883;1249;59670;-69
2022/04/14 11:36:43;;;;;;;6.40;3.70;;;;;;;21.93;18.74;97846.23;110050;1249;71629;-67
2022/04/14 11:39:21;;;;;;;5.20;3.70;;;;;;;21.54;19.67;97840.98;110046;1249;69341;-69
2022/04/14 11:41:53;;;;;;;4.50;3.40;;;;;;;21.44;18.59;97844.19;109961;1247;69348;-67